createdAt,value
2024-01-28T00:01:53.886Z,54.47
2024-01-28T00:04:22.057Z,54.10
2024-01-28T00:06:51.605Z,54.47
2024-01-28T00:09:19.702Z,54.10
2024-01-28T00:11:47.781Z,54.43
2024-01-28T00:14:16.104Z,54.33
2024-01-28T00:16:45.725Z,53.13
2024-01-28T00:19:13.888Z,54.30
2024-01-28T00:21:42.037Z,54.60
2024-01-28T00:24:11.559Z,53.90
2024-01-28T00:26:39.903Z,53.63
2024-01-28T00:29:08.219Z,54.20
2024-01-28T00:31:36.729Z,54.00
2024-01-28T00:34:05.055Z,53.13
2024-01-28T00:36:33.422Z,53.53
2024-01-28T00:39:01.428Z,53.30
2024-01-28T00:41:31.196Z,54.07
2024-01-28T00:43:59.695Z,53.73
2024-01-28T00:46:28.023Z,53.70
2024-01-28T00:48:56.251Z,53.53
2024-01-28T00:51:24.466Z,54.07
2024-01-28T00:53:52.524Z,54.10
2024-01-28T00:56:20.926Z,53.73
2024-01-28T00:58:51.051Z,53.93
2024-01-28T01:01:20.520Z,53.60
2024-01-28T01:03:49.548Z,54.27
2024-01-28T01:06:17.784Z,54.37
2024-01-28T01:08:45.964Z,53.77
2024-01-28T01:11:13.946Z,53.30
2024-01-28T01:13:42.012Z,53.90
2024-01-28T01:16:11.368Z,53.60
2024-01-28T01:18:40.538Z,53.53
2024-01-28T01:21:08.695Z,54.40
2024-01-28T01:23:36.751Z,53.83
2024-01-28T01:26:04.955Z,53.20
2024-01-28T01:28:34.147Z,53.97
2024-01-28T01:31:04.555Z,53.70
2024-01-28T01:33:34.221Z,53.90
2024-01-28T01:36:02.957Z,54.03
2024-01-28T01:38:31.596Z,54.57
2024-01-28T01:41:00.578Z,53.50
2024-01-28T01:43:29.642Z,54.20
2024-01-28T01:45:57.645Z,54.20
2024-01-28T01:48:29.064Z,54.13
2024-01-28T01:50:58.716Z,53.83
2024-01-28T01:53:27.048Z,53.43
2024-01-28T01:55:56.005Z,53.83
2024-01-28T01:58:25.353Z,53.40
2024-01-28T02:00:54.290Z,53.87
2024-01-28T02:03:23.059Z,53.60
2024-01-28T02:05:51.198Z,53.17
2024-01-28T02:08:20.742Z,53.07
2024-01-28T02:10:48.958Z,53.03
2024-01-28T02:13:17.011Z,52.83
2024-01-28T02:15:45.133Z,52.97
2024-01-28T02:18:13.402Z,52.70
2024-01-28T02:20:41.738Z,51.97
2024-01-28T02:23:10.429Z,50.50
2024-01-28T02:25:39.982Z,51.20
2024-01-28T02:28:08.188Z,50.97
2024-01-28T02:30:36.976Z,50.77
2024-01-28T02:33:06.334Z,50.13
2024-01-28T02:35:34.480Z,50.07
2024-01-28T02:38:02.541Z,50.10
2024-01-28T02:40:31.975Z,49.63
2024-01-28T02:43:05.010Z,49.70
2024-01-28T02:45:33.163Z,50.07
2024-01-28T02:48:01.329Z,49.73
2024-01-28T02:50:29.354Z,49.53
2024-01-28T02:52:57.601Z,49.93
2024-01-28T02:55:25.665Z,49.60
2024-01-28T02:57:53.848Z,49.30
2024-01-28T03:00:23.331Z,49.47
2024-01-28T03:02:51.417Z,49.20
2024-01-28T03:05:19.740Z,48.67
2024-01-28T03:07:47.714Z,48.80
2024-01-28T03:10:15.824Z,48.77
2024-01-28T03:12:43.859Z,49.13
2024-01-28T03:15:11.903Z,48.57
2024-01-28T03:17:41.305Z,48.77
2024-01-28T03:20:10.905Z,47.97
2024-01-28T03:22:38.901Z,48.07
2024-01-28T03:25:08.155Z,48.00
2024-01-28T03:27:36.929Z,48.10
2024-01-28T03:30:06.862Z,48.13
2024-01-28T03:32:34.926Z,48.77
2024-01-28T03:35:05.811Z,47.93
2024-01-28T03:37:33.838Z,47.60
2024-01-28T03:40:01.940Z,48.63
2024-01-28T03:42:29.994Z,48.17
2024-01-28T03:44:58.040Z,49.87
2024-01-28T03:47:26.126Z,48.07
2024-01-28T03:49:54.277Z,48.23
2024-01-28T03:52:23.691Z,48.70
2024-01-28T03:54:51.824Z,47.70
2024-01-28T03:57:20.369Z,47.83
2024-01-28T03:59:48.423Z,48.27
2024-01-28T04:02:16.638Z,48.13
2024-01-28T04:04:44.671Z,48.27
2024-01-28T04:07:12.775Z,48.10
2024-01-28T04:09:42.306Z,48.63
2024-01-28T04:12:10.753Z,47.40
2024-01-28T04:14:38.723Z,47.53
2024-01-28T04:17:07.271Z,48.63
2024-01-28T04:19:35.430Z,46.77
2024-01-28T04:22:03.643Z,47.30
2024-01-28T04:24:32.081Z,48.03
2024-01-28T04:27:01.419Z,48.73
2024-01-28T04:29:29.503Z,48.77
2024-01-28T04:31:57.531Z,48.10
2024-01-28T04:34:26.096Z,48.10
2024-01-28T04:36:54.194Z,48.03
2024-01-28T04:39:22.251Z,48.00
2024-01-28T04:41:50.370Z,48.70
2024-01-28T04:44:22.127Z,48.50
2024-01-28T04:46:51.169Z,48.13
2024-01-28T04:49:19.232Z,47.30
2024-01-28T04:51:47.347Z,47.47
2024-01-28T04:54:16.104Z,47.37
2024-01-28T04:56:44.315Z,48.70
2024-01-28T04:59:12.490Z,47.93
2024-01-28T05:01:41.899Z,47.47
2024-01-28T05:04:10.037Z,48.13
2024-01-28T05:06:38.344Z,48.63
2024-01-28T05:09:09.721Z,48.53
2024-01-28T05:11:37.857Z,48.83
2024-01-28T05:14:06.274Z,48.90
2024-01-28T05:16:35.108Z,48.73
2024-01-28T05:19:07.899Z,48.57
2024-01-28T05:21:36.086Z,48.87
2024-01-28T05:24:04.187Z,49.17
2024-01-28T05:26:32.480Z,48.97
2024-01-28T05:29:05.349Z,49.07
2024-01-28T05:31:34.392Z,48.63
2024-01-28T05:34:04.230Z,48.47
2024-01-28T05:36:32.963Z,47.97
2024-01-28T05:39:01.280Z,48.63
2024-01-28T05:41:29.743Z,49.60
2024-01-28T05:43:57.764Z,49.17
2024-01-28T05:46:25.968Z,49.27
2024-01-28T05:48:54.713Z,48.63
2024-01-28T05:51:24.219Z,49.17
2024-01-28T05:53:52.222Z,49.20
2024-01-28T05:56:20.190Z,48.90
2024-01-28T05:58:48.267Z,49.27
2024-01-28T06:01:16.860Z,49.13
2024-01-28T06:03:45.024Z,49.03
2024-01-28T06:06:13.136Z,49.00
2024-01-28T06:08:43.258Z,49.03
2024-01-28T06:11:11.702Z,48.90
2024-01-28T06:13:39.778Z,48.73
2024-01-28T06:16:08.740Z,49.13
2024-01-28T06:18:44.719Z,48.47
2024-01-28T06:21:13.389Z,49.50
2024-01-28T06:23:45.425Z,50.23
2024-01-28T06:26:13.376Z,50.10
2024-01-28T06:28:41.335Z,49.30
2024-01-28T06:31:09.331Z,49.53
2024-01-28T06:33:37.504Z,50.33
2024-01-28T06:36:06.544Z,50.13
2024-01-28T06:38:34.890Z,50.13
2024-01-28T06:41:04.411Z,49.97
2024-01-28T06:43:32.569Z,49.43
2024-01-28T06:46:00.942Z,49.50
2024-01-28T06:48:29.090Z,49.93
2024-01-28T06:50:57.146Z,49.17
2024-01-28T06:53:25.155Z,50.00
2024-01-28T06:55:53.126Z,49.80
2024-01-28T06:58:22.470Z,49.77
2024-01-28T07:00:50.737Z,50.40
2024-01-28T07:03:20.119Z,49.97
2024-01-28T07:05:48.415Z,49.80
2024-01-28T07:08:16.420Z,49.80
2024-01-28T07:10:44.410Z,50.07
2024-01-28T07:13:12.412Z,49.53
2024-01-28T07:15:40.903Z,49.73
2024-01-28T07:18:09.283Z,49.60
2024-01-28T07:20:37.864Z,49.97
2024-01-28T07:23:07.513Z,49.90
2024-01-28T07:25:35.692Z,49.77
2024-01-28T07:28:05.116Z,49.90
2024-01-28T07:30:33.701Z,49.93
2024-01-28T07:33:03.121Z,49.87
2024-01-28T07:35:31.703Z,50.00
2024-01-28T07:37:59.753Z,49.90
2024-01-28T07:40:27.766Z,50.07
2024-01-28T07:42:56.902Z,50.23
2024-01-28T07:45:25.082Z,49.97
2024-01-28T07:51:41.973Z,49.77
2024-01-28T07:54:10.313Z,49.83
2024-01-28T07:56:38.447Z,50.57
2024-01-28T07:59:06.461Z,49.97
2024-01-28T08:01:34.466Z,49.97
2024-01-28T08:04:02.671Z,50.30
2024-01-28T08:06:30.906Z,49.87
2024-01-28T08:09:01.678Z,49.20
2024-01-28T08:11:29.656Z,49.63
2024-01-28T08:13:57.644Z,49.10
2024-01-28T08:16:25.600Z,49.97
2024-01-28T08:18:55.243Z,49.73
2024-01-28T08:21:24.067Z,49.63
2024-01-28T08:23:52.055Z,49.53
2024-01-28T08:26:21.419Z,49.60
2024-01-28T08:28:49.416Z,49.53
2024-01-28T08:31:17.467Z,49.50
2024-01-28T08:33:45.527Z,49.33
2024-01-28T08:36:13.621Z,49.43
2024-01-28T08:38:41.625Z,49.67
2024-01-28T08:41:09.736Z,49.40
2024-01-28T08:43:39.157Z,49.43
2024-01-28T08:46:07.183Z,49.50
2024-01-28T08:48:35.393Z,48.67
2024-01-28T08:51:03.591Z,48.87
2024-01-28T08:53:31.547Z,49.03
2024-01-28T08:55:59.578Z,48.57
2024-01-28T08:58:27.566Z,49.03
2024-01-28T09:00:57.115Z,48.63
2024-01-28T09:03:25.212Z,48.23
2024-01-28T09:05:53.318Z,48.47
2024-01-28T09:08:21.343Z,48.63
2024-01-28T09:10:49.308Z,48.17
2024-01-28T09:13:17.292Z,48.17
2024-01-28T09:15:45.375Z,47.97
2024-01-28T09:18:14.952Z,48.07
2024-01-28T09:20:43.223Z,47.37
2024-01-28T09:23:11.201Z,47.97
2024-01-28T09:25:39.141Z,48.30
2024-01-28T09:28:08.637Z,47.70
2024-01-28T09:30:37.280Z,47.13
2024-01-28T09:33:06.430Z,46.77
2024-01-28T09:35:35.830Z,47.00
2024-01-28T09:38:02.832Z,46.43
2024-01-28T09:40:30.837Z,46.87
2024-01-28T09:43:02.778Z,46.67
2024-01-28T09:45:31.602Z,46.63
2024-01-28T09:48:00.980Z,47.03
2024-01-28T09:50:29.778Z,46.33
2024-01-28T09:52:59.947Z,47.17
2024-01-28T09:55:27.959Z,46.40
2024-01-28T09:57:56.072Z,47.20
2024-01-28T10:00:24.820Z,47.10
2024-01-28T10:02:52.911Z,46.70
2024-01-28T10:05:21.123Z,46.53
2024-01-28T10:07:51.583Z,46.47
2024-01-28T10:10:21.064Z,47.27
2024-01-28T10:12:50.751Z,47.03
2024-01-28T10:15:20.944Z,46.63
2024-01-28T10:17:51.134Z,46.53
2024-01-28T10:20:20.341Z,46.47
2024-01-28T10:22:48.511Z,46.73
2024-01-28T10:25:18.218Z,46.97
2024-01-28T10:27:49.545Z,46.87
2024-01-28T10:30:20.121Z,46.77
2024-01-28T10:32:48.675Z,46.93
2024-01-28T10:35:17.618Z,46.63
2024-01-28T10:37:52.842Z,46.73
2024-01-28T10:40:21.330Z,47.13
2024-01-28T10:42:52.519Z,47.13
2024-01-28T10:45:21.369Z,47.33
2024-01-28T10:47:54.569Z,47.23
2024-01-28T10:50:24.180Z,46.97
2024-01-28T10:52:52.591Z,46.97
2024-01-28T10:55:23.685Z,46.83
2024-01-28T10:57:55.882Z,46.50
2024-01-28T11:00:25.965Z,46.70
2024-01-28T11:02:56.157Z,46.67
2024-01-28T11:05:24.734Z,47.20
2024-01-28T11:07:55.098Z,46.80
2024-01-28T11:10:23.782Z,46.97
2024-01-28T11:12:54.114Z,47.37
2024-01-28T11:15:22.312Z,47.10
2024-01-28T11:17:52.140Z,47.30
2024-01-28T11:20:25.325Z,46.80
2024-01-28T11:22:55.702Z,47.27
2024-01-28T11:25:26.382Z,47.40
2024-01-28T11:28:01.468Z,46.90
2024-01-28T11:30:30.133Z,46.80
2024-01-28T11:33:11.679Z,46.67
2024-01-28T11:35:43.113Z,47.00
2024-01-28T11:38:12.749Z,46.97
2024-01-28T11:40:42.079Z,46.70
2024-01-28T11:43:11.620Z,46.60
2024-01-28T11:45:40.049Z,46.40
2024-01-28T11:48:09.214Z,46.90
2024-01-28T11:50:37.375Z,46.73
2024-01-28T11:53:06.834Z,46.77
2024-01-28T11:55:35.073Z,47.10
2024-01-28T11:58:03.588Z,46.73
2024-01-28T12:00:33.824Z,46.93
2024-01-28T12:03:01.996Z,47.03
2024-01-28T12:05:30.407Z,47.03
2024-01-28T12:08:03.042Z,46.97
2024-01-28T12:10:33.129Z,47.10
2024-01-28T12:13:01.530Z,47.33
2024-01-28T12:15:29.793Z,47.33
2024-01-28T12:18:00.112Z,47.23
2024-01-28T12:20:28.539Z,47.13
2024-01-28T12:22:56.695Z,46.53
2024-01-28T12:25:25.647Z,47.23
2024-01-28T12:27:53.931Z,47.13
2024-01-28T12:30:22.374Z,47.30
2024-01-28T12:32:52.368Z,47.47
2024-01-28T12:35:22.084Z,47.50
2024-01-28T12:37:50.355Z,47.47
2024-01-28T12:40:18.408Z,47.80
2024-01-28T12:42:46.622Z,48.17
2024-01-28T12:45:14.645Z,47.47
2024-01-28T12:47:42.847Z,47.27
2024-01-28T12:50:11.653Z,46.73
2024-01-28T12:52:41.512Z,46.83
2024-01-28T12:55:10.300Z,46.67
2024-01-28T12:57:40.498Z,46.80
2024-01-28T13:00:11.758Z,47.33
2024-01-28T13:02:41.309Z,46.97
2024-01-28T13:05:11.991Z,47.13
2024-01-28T13:07:42.833Z,46.87
2024-01-28T13:10:11.894Z,47.27
2024-01-28T13:12:42.868Z,47.33
2024-01-28T13:15:11.738Z,47.03
2024-01-28T13:17:40.886Z,47.47
2024-01-28T13:20:10.788Z,47.27
2024-01-28T13:22:43.992Z,47.37
2024-01-28T13:25:16.351Z,46.90
2024-01-28T13:27:44.664Z,47.53
2024-01-28T13:30:14.746Z,47.33
2024-01-28T13:32:44.420Z,47.53
2024-01-28T13:35:12.808Z,47.77
2024-01-28T13:37:42.081Z,47.57
2024-01-28T13:40:11.562Z,47.43
2024-01-28T13:42:41.341Z,47.80
2024-01-28T13:45:12.563Z,47.67
2024-01-28T13:47:42.332Z,48.27
2024-01-28T13:50:11.154Z,47.87
2024-01-28T13:52:39.155Z,47.80
2024-01-28T13:55:08.523Z,48.00
2024-01-28T13:57:36.658Z,48.07
2024-01-28T14:00:08.522Z,47.77
2024-01-28T14:02:36.565Z,48.30
2024-01-28T14:05:08.402Z,48.30
2024-01-28T14:07:37.493Z,47.37
2024-01-28T14:10:06.211Z,47.63
2024-01-28T14:12:34.306Z,47.83
2024-01-28T14:15:02.304Z,47.70
2024-01-28T14:17:31.757Z,47.77
2024-01-28T14:19:59.551Z,47.57
2024-01-28T14:22:29.107Z,48.80
2024-01-28T14:24:57.131Z,47.83
2024-01-28T14:27:25.223Z,47.90
2024-01-28T14:29:53.225Z,47.87
2024-01-28T14:32:21.246Z,47.57
2024-01-28T14:34:50.893Z,47.33
2024-01-28T14:37:19.029Z,47.50
2024-01-28T14:39:47.486Z,47.90
2024-01-28T14:42:15.645Z,48.07
2024-01-28T14:44:43.718Z,47.53
2024-01-28T14:47:13.190Z,47.60
2024-01-28T14:49:41.336Z,48.20
2024-01-28T14:52:10.773Z,48.00
2024-01-28T14:54:38.815Z,47.83
2024-01-28T14:57:08.662Z,47.43
2024-01-28T14:59:39.099Z,47.90
2024-01-28T15:02:07.880Z,47.87
2024-01-28T15:04:35.939Z,47.97
2024-01-28T15:07:04.265Z,47.87
2024-01-28T15:09:33.781Z,47.67
2024-01-28T15:12:01.807Z,47.37
2024-01-28T15:14:29.788Z,47.53
2024-01-28T15:16:57.870Z,47.67
2024-01-28T15:19:25.938Z,47.37
2024-01-28T15:21:54.031Z,47.10
2024-01-28T15:24:22.055Z,47.27
2024-01-28T15:26:51.890Z,46.87
2024-01-28T15:29:20.966Z,46.50
2024-01-28T15:31:52.748Z,47.17
2024-01-28T15:34:21.576Z,47.17
2024-01-28T15:36:49.726Z,47.50
2024-01-28T15:39:17.755Z,46.83
2024-01-28T15:41:45.773Z,47.17
2024-01-28T15:44:15.185Z,47.10
2024-01-28T15:46:43.456Z,46.80
2024-01-28T15:49:11.613Z,47.53
2024-01-28T15:51:40.538Z,47.03
2024-01-28T15:54:10.261Z,47.50
2024-01-28T15:56:39.081Z,47.17
2024-01-28T15:59:07.729Z,47.00
2024-01-28T16:01:37.216Z,46.63
2024-01-28T16:04:05.947Z,46.93
2024-01-28T16:06:34.483Z,46.70
2024-01-28T16:09:02.614Z,46.50
2024-01-28T16:11:30.679Z,47.20
2024-01-28T16:13:58.880Z,46.60
2024-01-28T16:16:27.426Z,47.10
2024-01-28T16:18:57.400Z,46.93
2024-01-28T16:21:25.608Z,47.20
2024-01-28T16:23:53.890Z,46.73
2024-01-28T16:26:22.251Z,46.40
2024-01-28T16:28:50.464Z,47.13
2024-01-28T16:31:21.000Z,47.20
2024-01-28T16:33:49.214Z,47.27
2024-01-28T16:36:19.442Z,47.07
2024-01-28T16:38:47.766Z,47.20
2024-01-28T16:41:15.823Z,46.93
2024-01-28T16:43:44.004Z,47.20
2024-01-28T16:46:12.087Z,47.23
2024-01-28T16:48:40.319Z,46.97
2024-01-28T16:51:08.379Z,47.13
2024-01-28T16:53:37.893Z,47.37
2024-01-28T16:56:06.595Z,46.87
2024-01-28T16:58:34.758Z,47.07
2024-01-28T17:01:03.007Z,46.97
2024-01-28T17:03:32.221Z,46.87
2024-01-28T17:06:00.416Z,47.07
2024-01-28T17:08:28.704Z,46.90
2024-01-28T17:10:58.628Z,46.87
2024-01-28T17:13:26.982Z,47.33
2024-01-28T17:15:55.184Z,47.60
2024-01-28T17:18:23.273Z,47.27
2024-01-28T17:20:53.192Z,46.47
2024-01-28T17:23:21.309Z,46.90
2024-01-28T17:25:49.362Z,46.87
2024-01-28T17:28:18.901Z,46.97
2024-01-28T17:30:47.065Z,46.87
2024-01-28T17:33:15.153Z,46.23
2024-01-28T17:35:43.393Z,47.47
2024-01-28T17:38:11.538Z,46.73
2024-01-28T17:40:39.577Z,47.17
2024-01-28T17:43:08.426Z,47.10
2024-01-28T17:45:38.061Z,46.53
2024-01-28T17:48:07.049Z,47.40
2024-01-28T17:50:35.149Z,47.30
2024-01-28T17:53:03.680Z,47.17
2024-01-28T17:55:31.745Z,47.67
2024-01-28T17:57:59.906Z,47.20
2024-01-28T18:00:28.451Z,47.47
2024-01-28T18:02:58.003Z,47.33
2024-01-28T18:05:26.024Z,47.47
2024-01-28T18:07:55.855Z,47.07
2024-01-28T18:10:24.425Z,47.53
2024-01-28T18:12:52.670Z,46.73
2024-01-28T18:15:20.875Z,47.03
2024-01-28T18:17:49.176Z,47.13
2024-01-28T18:20:19.990Z,46.93
2024-01-28T18:22:48.096Z,47.33
2024-01-28T18:25:16.774Z,47.23
2024-01-28T18:27:44.950Z,46.93
2024-01-28T18:30:13.834Z,47.37
2024-01-28T18:32:41.840Z,47.57
2024-01-28T18:35:10.452Z,47.20
2024-01-28T18:37:39.837Z,46.83
2024-01-28T18:40:10.430Z,47.33
2024-01-28T18:42:39.910Z,46.73
2024-01-28T18:45:09.455Z,46.93
2024-01-28T18:47:37.434Z,47.10
2024-01-28T18:50:07.750Z,46.63
2024-01-28T18:52:35.892Z,47.33
2024-01-28T18:55:06.103Z,46.83
2024-01-28T18:57:35.796Z,47.13
2024-01-28T19:00:04.436Z,46.83
2024-01-28T19:02:32.512Z,46.50
2024-01-28T19:05:01.184Z,46.70
2024-01-28T19:07:29.652Z,46.40
2024-01-28T19:09:58.851Z,46.63
2024-01-28T19:12:28.322Z,46.97
2024-01-28T19:14:56.306Z,46.63
2024-01-28T19:17:24.776Z,46.80
2024-01-28T19:19:53.065Z,46.77
2024-01-28T19:22:21.141Z,46.83
2024-01-28T19:24:49.240Z,46.87
2024-01-28T19:27:17.549Z,46.73
2024-01-28T19:29:47.214Z,46.30
2024-01-28T19:32:15.271Z,47.00
2024-01-28T19:34:43.406Z,46.87
2024-01-28T19:37:11.540Z,46.83
2024-01-28T19:39:41.064Z,46.70
2024-01-28T19:42:09.663Z,46.20
2024-01-28T19:44:37.689Z,46.80
2024-01-28T19:47:07.776Z,45.87
2024-01-28T19:49:35.837Z,46.80
2024-01-28T19:52:03.968Z,46.60
2024-01-28T19:54:32.060Z,46.03
2024-01-28T19:57:00.083Z,46.97
2024-01-28T19:59:28.126Z,47.17
2024-01-28T20:01:56.508Z,47.00
2024-01-28T20:04:26.755Z,46.60
2024-01-28T20:06:55.032Z,46.20
2024-01-28T20:09:23.082Z,46.90
2024-01-28T20:11:51.117Z,46.80
2024-01-28T20:14:19.176Z,47.47
2024-01-28T20:16:47.193Z,46.43
2024-01-28T20:19:18.517Z,46.60
2024-01-28T20:21:50.359Z,47.03
2024-01-28T20:24:18.793Z,47.10
2024-01-28T20:26:46.879Z,46.40
2024-01-28T20:29:14.909Z,46.20
2024-01-28T20:31:43.856Z,46.60
2024-01-28T20:34:12.076Z,46.23
2024-01-28T20:36:40.466Z,46.00
2024-01-28T20:39:09.881Z,47.40
2024-01-28T20:41:40.213Z,46.77
2024-01-28T20:44:08.266Z,46.17
2024-01-28T20:46:36.361Z,46.93
2024-01-28T20:49:04.543Z,46.50
2024-01-28T20:51:32.608Z,47.30
2024-01-28T20:54:00.623Z,46.73
2024-01-28T20:56:29.997Z,47.13
2024-01-28T20:58:58.008Z,47.47
2024-01-28T21:01:26.086Z,47.00
2024-01-28T21:03:54.232Z,47.10
2024-01-28T21:06:24.088Z,47.47
2024-01-28T21:08:52.270Z,47.20
2024-01-28T21:11:20.296Z,47.53
2024-01-28T21:13:49.694Z,47.30
2024-01-28T21:16:17.862Z,47.43
2024-01-28T21:18:46.045Z,47.23
2024-01-28T21:21:14.200Z,47.10
2024-01-28T21:23:42.224Z,47.43
2024-01-28T21:26:10.271Z,47.33
2024-01-28T21:28:38.995Z,47.60
2024-01-28T21:31:08.536Z,47.33
2024-01-28T21:33:36.704Z,47.90
2024-01-28T21:36:05.177Z,46.83
2024-01-28T21:38:33.227Z,47.87
2024-01-28T21:41:03.075Z,47.77
2024-01-28T21:43:31.158Z,47.07
2024-01-28T21:45:59.329Z,47.93
2024-01-28T21:48:28.974Z,47.23
2024-01-28T21:50:57.781Z,47.90
2024-01-28T21:53:25.924Z,48.00
2024-01-28T21:55:54.634Z,48.20
2024-01-28T21:58:22.665Z,48.00
2024-01-28T22:00:50.931Z,47.97
2024-01-28T22:03:19.012Z,47.87
2024-01-28T22:05:48.521Z,48.10
2024-01-28T22:08:19.084Z,47.80
2024-01-28T22:10:47.059Z,47.07
2024-01-28T22:13:15.485Z,48.07
2024-01-28T22:15:43.768Z,47.97
2024-01-28T22:18:11.801Z,48.27
2024-01-28T22:20:39.833Z,48.07
2024-01-28T22:23:09.233Z,48.17
2024-01-28T22:25:37.244Z,48.00
2024-01-28T22:28:06.018Z,48.27
2024-01-28T22:30:35.318Z,47.97
2024-01-28T22:33:02.807Z,47.40
2024-01-28T22:35:31.753Z,47.87
2024-01-28T22:38:00.221Z,47.43
2024-01-28T22:40:29.559Z,47.27
2024-01-28T22:42:57.916Z,48.13
2024-01-28T22:45:26.343Z,47.23
2024-01-28T22:47:54.435Z,47.37
2024-01-28T22:50:22.521Z,47.93
2024-01-28T22:52:50.525Z,48.00
2024-01-28T22:55:19.022Z,47.43
2024-01-28T22:57:48.447Z,48.07
2024-01-28T23:00:19.328Z,48.33
2024-01-28T23:02:47.374Z,48.27
2024-01-28T23:05:16.086Z,48.47
2024-01-28T23:07:45.785Z,48.47
2024-01-28T23:10:13.964Z,47.77
2024-01-28T23:12:42.283Z,47.97
2024-01-28T23:15:18.215Z,48.53
2024-01-28T23:17:50.765Z,48.17
2024-01-28T23:20:19.053Z,48.57
2024-01-28T23:22:47.190Z,48.37
2024-01-28T23:25:15.667Z,48.70
2024-01-28T23:27:43.796Z,48.87
2024-01-28T23:30:14.623Z,48.57
2024-01-28T23:32:41.733Z,48.07
2024-01-28T23:35:11.179Z,48.33
2024-01-28T23:37:40.211Z,48.47
2024-01-28T23:40:11.841Z,48.07
2024-01-28T23:42:40.774Z,48.67
2024-01-28T23:45:11.289Z,48.10
2024-01-28T23:47:40.782Z,48.03
2024-01-28T23:50:10.219Z,48.60
2024-01-28T23:52:38.347Z,48.73
2024-01-28T23:55:10.378Z,48.80
2024-01-28T23:57:38.665Z,49.03
